createdAt,value
2019-03-22T00:00:38.893Z,85.33
2019-03-22T00:03:07.282Z,85.48
2019-03-22T00:05:35.675Z,85.31
2019-03-22T00:08:03.999Z,85.29
2019-03-22T00:10:32.542Z,85.38
2019-03-22T00:13:00.869Z,85.32
2019-03-22T00:15:29.160Z,85.41
2019-03-22T00:17:57.466Z,85.33
2019-03-22T00:20:25.780Z,85.14
2019-03-22T00:22:54.380Z,85.13
2019-03-22T00:25:22.669Z,85.28
2019-03-22T00:27:50.967Z,85.46
2019-03-22T00:30:19.287Z,85.76
2019-03-22T00:32:47.596Z,85.72
2019-03-22T00:35:15.911Z,85.67
2019-03-22T00:37:44.586Z,85.66
2019-03-22T00:40:13.071Z,85.86
2019-03-22T00:42:41.625Z,85.95
2019-03-22T00:45:11.450Z,85.95
2019-03-22T00:47:39.777Z,86.10
2019-03-22T00:50:10.658Z,86.07
2019-03-22T00:52:38.969Z,85.94
2019-03-22T00:55:07.729Z,86.08
2019-03-22T00:57:36.094Z,86.18
2019-03-22T01:00:07.593Z,86.35
2019-03-22T01:02:35.899Z,86.49
2019-03-22T01:05:06.592Z,86.37
2019-03-22T01:07:35.090Z,86.30
2019-03-22T01:10:05.450Z,86.28
2019-03-22T01:12:33.827Z,86.38
2019-03-22T01:15:02.451Z,86.38
2019-03-22T01:17:30.779Z,86.26
2019-03-22T01:19:59.111Z,86.12
2019-03-22T01:22:27.431Z,86.09
2019-03-22T01:24:55.777Z,86.12
2019-03-22T01:27:24.149Z,86.14
2019-03-22T01:29:52.813Z,86.17
2019-03-22T01:32:21.121Z,86.38
2019-03-22T01:34:49.411Z,86.52
2019-03-22T01:37:17.721Z,86.25
2019-03-22T01:39:46.323Z,86.16
2019-03-22T01:42:14.642Z,86.31
2019-03-22T01:44:42.929Z,86.21
2019-03-22T01:47:11.566Z,86.17
2019-03-22T01:49:39.973Z,86.26
2019-03-22T01:52:08.283Z,86.46
2019-03-22T01:54:36.906Z,86.72
2019-03-22T01:57:05.232Z,86.69
2019-03-22T01:59:33.871Z,86.53
2019-03-22T02:02:02.441Z,86.54
2019-03-22T02:04:30.742Z,86.57
2019-03-22T02:06:59.312Z,86.63
2019-03-22T02:09:27.632Z,86.79
2019-03-22T02:11:55.932Z,86.66
2019-03-22T02:14:24.250Z,86.64
2019-03-22T02:16:52.648Z,86.64
2019-03-22T02:19:21.299Z,86.88
2019-03-22T02:21:49.602Z,86.95
2019-03-22T02:24:17.906Z,86.75
2019-03-22T02:26:46.469Z,86.76
2019-03-22T02:29:14.823Z,86.97
2019-03-22T02:31:43.400Z,86.95
2019-03-22T02:34:11.722Z,86.91
2019-03-22T02:36:40.014Z,86.73
2019-03-22T02:39:08.346Z,86.66
2019-03-22T02:41:36.643Z,86.62
2019-03-22T02:44:05.159Z,86.61
2019-03-22T02:46:33.777Z,86.76
2019-03-22T02:49:02.183Z,87.02
2019-03-22T02:51:30.526Z,86.96
2019-03-22T02:53:58.831Z,86.77
2019-03-22T02:56:27.143Z,86.82
2019-03-22T02:58:59.065Z,86.89
2019-03-22T03:01:25.468Z,86.97
2019-03-22T03:03:54.079Z,87.10
2019-03-22T03:06:22.492Z,87.16
2019-03-22T03:08:50.803Z,87.19
2019-03-22T03:11:19.102Z,87.25
2019-03-22T03:13:47.796Z,87.09
2019-03-22T03:16:16.125Z,87.00
2019-03-22T03:18:44.413Z,87.08
2019-03-22T03:21:12.734Z,87.30
2019-03-22T03:23:41.044Z,87.42
2019-03-22T03:26:09.473Z,87.27
2019-03-22T03:28:37.869Z,87.16
2019-03-22T03:31:06.406Z,87.28
2019-03-22T03:33:34.744Z,87.40
2019-03-22T03:36:03.067Z,87.43
2019-03-22T03:38:31.371Z,87.13
2019-03-22T03:40:59.953Z,86.98
2019-03-22T03:43:28.238Z,86.93
2019-03-22T03:45:56.645Z,87.00
2019-03-22T03:48:25.290Z,87.06
2019-03-22T03:50:53.996Z,87.34
2019-03-22T03:53:22.332Z,87.66
2019-03-22T03:55:50.660Z,87.61
2019-03-22T03:58:19.042Z,87.54
2019-03-22T04:00:47.329Z,87.47
2019-03-22T04:03:15.647Z,87.72
2019-03-22T04:05:43.966Z,87.87
2019-03-22T04:08:12.338Z,87.85
2019-03-22T04:10:40.668Z,87.69
2019-03-22T04:13:08.982Z,87.74
2019-03-22T04:15:37.278Z,87.93
2019-03-22T04:18:05.976Z,88.19
2019-03-22T04:20:34.274Z,88.29
2019-03-22T04:23:02.585Z,88.04
2019-03-22T04:25:30.927Z,88.04
2019-03-22T04:27:59.217Z,88.00
2019-03-22T04:30:27.591Z,87.93
2019-03-22T04:32:55.880Z,88.09
2019-03-22T04:35:24.184Z,88.38
2019-03-22T04:37:52.496Z,88.57
2019-03-22T04:40:25.430Z,88.49
2019-03-22T04:42:53.778Z,88.29
2019-03-22T04:45:22.375Z,88.00
2019-03-22T04:48:03.056Z,87.83
2019-03-22T04:50:33.838Z,87.96
2019-03-22T04:53:02.649Z,88.03
2019-03-22T04:55:31.686Z,88.02
2019-03-22T04:58:00.119Z,88.17
2019-03-22T05:00:28.580Z,88.27
2019-03-22T05:02:57.081Z,88.42
2019-03-22T05:05:26.349Z,88.32
2019-03-22T05:07:54.725Z,88.20
2019-03-22T05:10:23.922Z,88.21
2019-03-22T05:12:53.509Z,88.29
2019-03-22T05:15:22.245Z,88.52
2019-03-22T05:17:50.740Z,88.66
2019-03-22T05:20:20.623Z,88.48
2019-03-22T05:22:49.308Z,88.44
2019-03-22T05:25:18.379Z,88.51
2019-03-22T05:27:47.483Z,88.73
2019-03-22T05:30:49.531Z,88.93
2019-03-22T05:33:17.846Z,89.05
2019-03-22T05:35:46.140Z,89.16
2019-03-22T05:38:14.507Z,89.12
2019-03-22T05:40:42.830Z,89.39
2019-03-22T05:43:11.166Z,89.42
2019-03-22T05:45:39.811Z,89.51
2019-03-22T05:48:08.137Z,89.66
2019-03-22T05:50:36.771Z,89.89
2019-03-22T05:53:05.323Z,90.07
2019-03-22T05:55:33.939Z,90.19
2019-03-22T05:58:02.301Z,90.21
2019-03-22T06:00:30.630Z,90.21
2019-03-22T06:02:58.942Z,90.07
2019-03-22T06:05:27.246Z,90.02
2019-03-22T06:07:55.543Z,89.97
2019-03-22T06:10:23.845Z,90.00
2019-03-22T06:12:52.483Z,90.16
2019-03-22T06:15:20.782Z,90.10
2019-03-22T06:17:51.998Z,89.96
2019-03-22T06:20:19.155Z,89.89
2019-03-22T06:22:47.976Z,89.82
2019-03-22T06:25:16.270Z,89.85
2019-03-22T06:27:44.575Z,89.91
2019-03-22T06:30:12.939Z,89.90
2019-03-22T06:32:41.261Z,89.78
2019-03-22T06:35:09.593Z,89.64
2019-03-22T06:37:37.899Z,89.58
2019-03-22T06:40:07.616Z,89.38
2019-03-22T06:42:36.177Z,89.43
2019-03-22T06:45:06.166Z,89.42
2019-03-22T06:47:34.405Z,89.35
2019-03-22T06:50:02.896Z,89.41
2019-03-22T06:52:31.190Z,89.44
2019-03-22T06:54:59.851Z,89.40
2019-03-22T06:57:28.142Z,89.44
2019-03-22T07:00:05.996Z,89.43
2019-03-22T07:02:26.765Z,89.23
2019-03-22T07:04:55.333Z,89.21
2019-03-22T07:07:23.710Z,89.19
2019-03-22T07:09:52.042Z,88.98
2019-03-22T07:12:20.341Z,89.05
2019-03-22T07:14:48.638Z,89.06
2019-03-22T07:17:16.967Z,89.21
2019-03-22T07:19:45.277Z,89.21
2019-03-22T07:22:13.587Z,89.02
2019-03-22T07:24:41.971Z,88.75
2019-03-22T07:27:10.300Z,88.95
2019-03-22T07:29:38.872Z,88.64
2019-03-22T07:32:07.475Z,88.76
2019-03-22T07:34:36.050Z,88.82
2019-03-22T07:37:04.423Z,88.85
2019-03-22T07:39:32.745Z,88.65
2019-03-22T07:42:01.047Z,88.37
2019-03-22T07:44:29.362Z,87.70
2019-03-22T07:46:57.648Z,87.74
2019-03-22T07:49:25.976Z,87.32
2019-03-22T07:51:54.268Z,87.27
2019-03-22T07:54:22.863Z,87.09
2019-03-22T07:56:51.457Z,86.78
2019-03-22T07:59:19.766Z,86.87
2019-03-22T08:01:48.074Z,86.70
2019-03-22T08:04:16.391Z,86.43
2019-03-22T08:06:44.677Z,85.52
2019-03-22T08:09:13.004Z,85.10
2019-03-22T08:11:41.297Z,85.02
2019-03-22T08:14:09.612Z,85.09
2019-03-22T08:16:38.284Z,84.91
2019-03-22T08:19:06.591Z,84.80
2019-03-22T08:21:34.908Z,83.98
2019-03-22T08:24:03.520Z,84.00
2019-03-22T08:26:32.205Z,83.21
2019-03-22T08:29:00.530Z,82.38
2019-03-22T08:31:29.170Z,82.70
2019-03-22T08:33:57.482Z,82.60
2019-03-22T08:36:25.878Z,82.22
2019-03-22T08:38:54.162Z,81.88
2019-03-22T08:41:24.032Z,81.20
2019-03-22T08:43:52.802Z,81.18
2019-03-22T08:46:21.393Z,81.07
2019-03-22T08:48:49.796Z,80.61
2019-03-22T08:51:18.099Z,80.20
2019-03-22T08:53:55.153Z,79.52
2019-03-22T08:56:16.431Z,78.70
2019-03-22T08:58:44.753Z,78.61
2019-03-22T09:01:13.050Z,78.78
2019-03-22T09:03:41.385Z,78.67
2019-03-22T09:06:09.781Z,78.10
2019-03-22T09:08:38.166Z,78.10
2019-03-22T09:11:06.488Z,77.29
2019-03-22T09:13:34.856Z,76.94
2019-03-22T09:16:03.102Z,77.13
2019-03-22T09:18:31.404Z,76.13
2019-03-22T09:20:59.764Z,75.25
2019-03-22T09:23:28.411Z,75.22
2019-03-22T09:25:56.728Z,75.11
2019-03-22T09:28:25.241Z,75.10
2019-03-22T09:30:53.834Z,74.75
2019-03-22T09:33:22.136Z,74.47
2019-03-22T09:35:50.469Z,73.55
2019-03-22T09:38:18.824Z,73.63
2019-03-22T09:40:47.101Z,72.80
2019-03-22T09:43:15.407Z,72.30
2019-03-22T09:45:44.531Z,71.85
2019-03-22T09:48:12.981Z,71.57
2019-03-22T09:50:41.246Z,71.18
2019-03-22T09:53:09.560Z,69.92
2019-03-22T09:55:37.879Z,69.28
2019-03-22T09:58:06.165Z,68.75
2019-03-22T10:00:35.378Z,68.39
2019-03-22T10:03:04.451Z,68.16
2019-03-22T10:05:32.712Z,67.25
2019-03-22T10:08:01.900Z,67.05
2019-03-22T10:10:30.234Z,67.26
2019-03-22T10:12:58.544Z,66.03
2019-03-22T10:15:26.886Z,65.42
2019-03-22T10:17:55.175Z,65.97
2019-03-22T10:20:23.764Z,65.29
2019-03-22T10:22:52.098Z,64.98
2019-03-22T10:25:20.398Z,65.06
2019-03-22T10:27:49.013Z,65.21
2019-03-22T10:30:18.233Z,64.39
2019-03-22T10:32:46.546Z,64.10
2019-03-22T10:35:25.513Z,64.22
2019-03-22T10:37:45.204Z,63.18
2019-03-22T10:40:14.084Z,62.38
2019-03-22T10:42:42.373Z,62.43
2019-03-22T10:45:11.019Z,61.10
2019-03-22T10:47:39.559Z,60.83
2019-03-22T10:50:09.092Z,60.45
2019-03-22T10:52:37.423Z,60.74
2019-03-22T10:55:23.464Z,59.53
2019-03-22T10:57:40.303Z,58.83
2019-03-22T11:00:10.836Z,57.77
2019-03-22T11:02:39.146Z,57.33
2019-03-22T11:05:07.802Z,56.94
2019-03-22T11:07:36.118Z,56.92
2019-03-22T11:10:12.695Z,56.83
2019-03-22T11:12:40.675Z,56.26
2019-03-22T11:15:11.711Z,55.74
2019-03-22T11:17:40.266Z,56.20
2019-03-22T11:20:17.121Z,55.33
2019-03-22T11:22:45.518Z,53.95
2019-03-22T11:25:13.892Z,54.12
2019-03-22T11:27:42.214Z,53.23
2019-03-22T11:30:15.964Z,52.03
2019-03-22T11:32:44.647Z,51.47
2019-03-22T11:35:12.935Z,50.12
2019-03-22T11:37:41.605Z,48.05
2019-03-22T11:40:12.547Z,48.38
2019-03-22T11:42:41.227Z,48.79
2019-03-22T11:45:18.061Z,47.90
2019-03-22T11:47:46.448Z,47.21
2019-03-22T11:50:15.210Z,47.17
2019-03-22T11:52:43.499Z,47.17
2019-03-22T11:55:13.796Z,47.70
2019-03-22T11:57:42.124Z,47.01
2019-03-22T12:00:19.513Z,47.12
2019-03-22T12:02:47.857Z,46.96
2019-03-22T12:05:17.096Z,46.89
2019-03-22T12:07:45.401Z,48.05
2019-03-22T12:10:23.214Z,47.98
2019-03-22T12:12:51.507Z,48.14
2019-03-22T12:15:25.992Z,48.31
2019-03-22T12:17:54.305Z,48.53
2019-03-22T12:20:23.747Z,48.38
2019-03-22T12:22:52.546Z,48.74
2019-03-22T12:25:24.317Z,48.74
2019-03-22T12:27:52.643Z,48.07
2019-03-22T12:30:21.108Z,47.91
2019-03-22T12:32:49.414Z,48.01
2019-03-22T12:35:18.452Z,47.99
2019-03-22T12:37:46.860Z,48.53
2019-03-22T12:40:18.361Z,48.26
2019-03-22T12:42:46.685Z,48.13
2019-03-22T12:45:28.620Z,48.64
2019-03-22T12:47:57.020Z,48.90
2019-03-22T12:50:25.378Z,49.15
2019-03-22T12:52:53.857Z,49.12
2019-03-22T12:55:22.424Z,49.00
2019-03-22T12:57:50.892Z,48.75
2019-03-22T13:00:24.833Z,48.39
2019-03-22T13:02:53.780Z,47.96
2019-03-22T13:05:22.622Z,48.69
2019-03-22T13:07:51.262Z,48.52
2019-03-22T13:10:24.922Z,49.13
2019-03-22T13:12:53.717Z,49.30
2019-03-22T13:15:22.026Z,48.34
2019-03-22T13:17:50.701Z,48.92
2019-03-22T13:20:19.349Z,49.12
2019-03-22T13:22:47.654Z,48.07
2019-03-22T13:25:17.107Z,47.78
2019-03-22T13:27:45.431Z,48.39
2019-03-22T13:30:31.235Z,48.34
2019-03-22T13:32:59.692Z,48.20
2019-03-22T13:35:27.995Z,48.23
2019-03-22T13:37:56.761Z,48.17
2019-03-22T13:40:25.065Z,47.68
2019-03-22T13:42:53.550Z,46.92
2019-03-22T13:45:21.837Z,47.25
2019-03-22T13:47:50.166Z,47.43
2019-03-22T13:50:18.478Z,48.01
2019-03-22T13:52:46.886Z,47.83
2019-03-22T13:55:15.285Z,48.09
2019-03-22T13:57:43.878Z,47.67
2019-03-22T14:00:14.121Z,47.25
2019-03-22T14:02:42.412Z,47.22
2019-03-22T14:05:11.063Z,47.24
2019-03-22T14:07:39.655Z,47.95
2019-03-22T14:10:09.800Z,47.87
2019-03-22T14:12:38.451Z,47.55
2019-03-22T14:15:07.649Z,47.33
2019-03-22T14:17:35.951Z,47.17
2019-03-22T14:20:11.251Z,47.40
2019-03-22T14:22:37.286Z,46.90
2019-03-22T14:25:06.666Z,47.80
2019-03-22T14:27:34.957Z,48.07
2019-03-22T14:30:05.338Z,47.41
2019-03-22T14:32:33.724Z,47.49
2019-03-22T14:35:02.038Z,47.48
2019-03-22T14:37:30.347Z,47.19
2019-03-22T14:39:58.653Z,46.77
2019-03-22T14:42:26.957Z,46.60
2019-03-22T14:44:55.383Z,47.02
2019-03-22T14:47:23.696Z,46.64
2019-03-22T14:49:52.008Z,46.20
2019-03-22T14:52:20.603Z,46.27
2019-03-22T14:54:48.916Z,46.28
2019-03-22T14:57:17.596Z,46.61
2019-03-22T14:59:45.886Z,46.49
2019-03-22T15:02:14.197Z,46.25
2019-03-22T15:04:42.518Z,45.89
2019-03-22T15:07:19.377Z,46.17
2019-03-22T15:09:40.846Z,46.28
2019-03-22T15:12:09.482Z,46.17
2019-03-22T15:14:39.440Z,46.46
2019-03-22T15:17:25.579Z,46.62
2019-03-22T15:19:55.522Z,46.75
2019-03-22T15:22:41.797Z,46.89
2019-03-22T15:25:27.043Z,46.67
2019-03-22T15:27:59.643Z,47.46
2019-03-22T15:30:41.665Z,47.76
2019-03-22T15:33:34.330Z,47.50
2019-03-22T15:36:08.755Z,47.65
2019-03-22T15:38:41.909Z,47.94
2019-03-22T15:41:10.300Z,48.06
2019-03-22T15:43:38.590Z,47.94
2019-03-22T15:46:07.238Z,48.08
2019-03-22T15:48:35.539Z,48.12
2019-03-22T15:51:03.838Z,48.11
2019-03-22T15:53:32.164Z,48.04
2019-03-22T15:56:03.790Z,48.07
2019-03-22T15:58:32.111Z,48.35
2019-03-22T16:01:00.415Z,48.13
2019-03-22T16:03:28.743Z,47.95
2019-03-22T16:05:57.072Z,47.94
2019-03-22T16:08:25.473Z,48.07
2019-03-22T16:10:53.780Z,48.19
2019-03-22T16:13:22.102Z,47.84
2019-03-22T16:15:50.435Z,47.98
2019-03-22T16:18:20.329Z,48.16
2019-03-22T16:20:48.733Z,48.27
2019-03-22T16:23:17.053Z,48.36
2019-03-22T16:25:45.350Z,48.47
2019-03-22T16:28:13.817Z,48.72
2019-03-22T16:30:42.463Z,48.88
2019-03-22T16:33:10.751Z,49.00
2019-03-22T16:35:39.170Z,49.22
2019-03-22T16:38:07.457Z,49.50
2019-03-22T16:40:35.784Z,49.83
2019-03-22T16:43:04.156Z,50.02
2019-03-22T16:45:42.463Z,50.11
2019-03-22T16:48:10.755Z,50.32
2019-03-22T16:50:39.165Z,50.49
2019-03-22T16:53:07.467Z,50.68
2019-03-22T16:55:35.775Z,50.76
2019-03-22T16:58:04.509Z,50.75
2019-03-22T17:00:32.814Z,50.63
2019-03-22T17:03:01.142Z,51.04
2019-03-22T17:05:29.461Z,51.10
2019-03-22T17:07:58.077Z,51.21
2019-03-22T17:10:26.625Z,51.38
2019-03-22T17:12:54.993Z,51.58
2019-03-22T17:15:23.281Z,52.00
2019-03-22T17:17:51.618Z,52.00
2019-03-22T17:20:19.917Z,52.46
2019-03-22T17:22:48.226Z,52.64
2019-03-22T17:25:16.531Z,52.99
2019-03-22T17:27:44.962Z,53.34
2019-03-22T17:30:14.197Z,53.63
2019-03-22T17:32:42.532Z,53.91
2019-03-22T17:35:10.819Z,54.26
2019-03-22T17:37:39.147Z,54.53
2019-03-22T17:40:08.179Z,54.89
2019-03-22T17:42:36.543Z,55.42
2019-03-22T17:45:11.027Z,55.73
2019-03-22T17:47:39.430Z,56.07
2019-03-22T17:50:09.187Z,56.42
2019-03-22T17:52:37.477Z,57.13
2019-03-22T17:55:09.760Z,57.47
2019-03-22T17:57:38.055Z,57.92
2019-03-22T18:00:09.528Z,58.31
2019-03-22T18:02:37.824Z,58.93
2019-03-22T18:05:08.468Z,59.40
2019-03-22T18:07:37.037Z,60.06
2019-03-22T18:10:10.249Z,60.56
2019-03-22T18:12:38.612Z,61.14
2019-03-22T18:15:11.182Z,61.76
2019-03-22T18:17:39.583Z,62.40
2019-03-22T18:20:15.439Z,62.93
2019-03-22T18:22:43.742Z,63.21
2019-03-22T18:25:13.129Z,63.59
2019-03-22T18:27:41.450Z,64.07
2019-03-22T18:30:13.779Z,64.50
2019-03-22T18:32:42.075Z,64.96
2019-03-22T18:35:10.576Z,65.50
2019-03-22T18:37:39.230Z,65.92
2019-03-22T18:40:10.742Z,66.60
2019-03-22T18:42:39.086Z,67.01
2019-03-22T18:45:10.243Z,67.31
2019-03-22T18:47:38.548Z,67.54
2019-03-22T18:50:08.828Z,67.86
2019-03-22T18:52:37.390Z,68.16
2019-03-22T18:55:07.181Z,68.50
2019-03-22T18:57:36.355Z,68.76
2019-03-22T19:00:13.356Z,68.99
2019-03-22T19:02:41.703Z,69.26
2019-03-22T19:05:10.176Z,69.62
2019-03-22T19:07:38.854Z,69.91
2019-03-22T19:10:13.447Z,70.25
2019-03-22T19:12:41.761Z,70.62
2019-03-22T19:15:14.787Z,70.98
2019-03-22T19:17:43.092Z,71.39
2019-03-22T19:20:12.858Z,71.79
2019-03-22T19:22:41.150Z,72.17
2019-03-22T19:25:09.841Z,72.59
2019-03-22T19:27:38.441Z,72.97
2019-03-22T19:30:12.596Z,73.26
2019-03-22T19:32:40.886Z,73.55
2019-03-22T19:35:09.683Z,73.85
2019-03-22T19:37:37.985Z,74.23
2019-03-22T19:40:11.929Z,74.49
2019-03-22T19:42:40.257Z,74.79
2019-03-22T19:45:10.413Z,75.04
2019-03-22T19:47:38.721Z,75.33
2019-03-22T19:50:09.493Z,75.62
2019-03-22T19:52:37.833Z,75.77
2019-03-22T19:55:08.567Z,75.96
2019-03-22T19:57:37.549Z,76.11
2019-03-22T20:00:08.867Z,76.29
2019-03-22T20:02:37.172Z,76.42
2019-03-22T20:05:07.559Z,76.58
2019-03-22T20:07:35.854Z,76.63
2019-03-22T20:10:07.355Z,76.73
2019-03-22T20:12:35.667Z,76.91
2019-03-22T20:15:05.524Z,77.08
2019-03-22T20:17:34.196Z,77.21
2019-03-22T20:20:02.527Z,77.31
2019-03-22T20:22:30.866Z,77.39
2019-03-22T20:24:59.197Z,77.52
2019-03-22T20:27:27.665Z,77.63
2019-03-22T20:29:55.996Z,77.81
2019-03-22T20:32:24.317Z,77.98
2019-03-22T20:34:52.624Z,78.19
2019-03-22T20:37:20.964Z,78.32
2019-03-22T20:39:49.271Z,78.44
2019-03-22T20:42:17.593Z,78.60
2019-03-22T20:44:45.888Z,78.60
2019-03-22T20:47:14.210Z,78.63
2019-03-22T20:49:42.508Z,78.74
2019-03-22T20:52:10.841Z,78.83
2019-03-22T20:54:39.163Z,78.87
2019-03-22T20:57:07.475Z,79.05
2019-03-22T20:59:35.799Z,79.25
2019-03-22T21:02:04.099Z,79.41
2019-03-22T21:04:32.427Z,79.37
2019-03-22T21:07:00.765Z,79.33
2019-03-22T21:09:44.524Z,79.37
2019-03-22T21:12:12.820Z,79.28
2019-03-22T21:14:41.157Z,79.24
2019-03-22T21:17:09.464Z,79.11
2019-03-22T21:19:38.093Z,79.13
2019-03-22T21:22:06.672Z,79.05
2019-03-22T21:24:34.999Z,79.13
2019-03-22T21:27:03.313Z,79.11
2019-03-22T21:29:31.620Z,79.06
2019-03-22T21:31:59.985Z,79.08
2019-03-22T21:34:28.282Z,79.07
2019-03-22T21:36:56.946Z,79.10
2019-03-22T21:39:25.540Z,79.26
2019-03-22T21:41:53.856Z,79.33
2019-03-22T21:44:22.180Z,79.50
2019-03-22T21:46:50.488Z,79.50
2019-03-22T21:49:18.792Z,79.55
2019-03-22T21:51:47.100Z,79.70
2019-03-22T21:54:15.427Z,79.83
2019-03-22T21:56:43.791Z,79.96
2019-03-22T21:59:12.448Z,80.06
2019-03-22T22:01:41.050Z,80.06
2019-03-22T22:04:09.359Z,79.99
2019-03-22T22:06:37.666Z,80.30
2019-03-22T22:09:06.745Z,80.48
2019-03-22T22:11:35.044Z,80.73
2019-03-22T22:14:03.393Z,80.82
2019-03-22T22:16:32.020Z,80.88
2019-03-22T22:19:00.341Z,80.91
2019-03-22T22:21:28.637Z,80.98
2019-03-22T22:23:56.971Z,80.92
2019-03-22T22:26:25.274Z,81.03
2019-03-22T22:28:53.565Z,81.08
2019-03-22T22:31:21.904Z,81.17
2019-03-22T22:33:50.484Z,81.19
2019-03-22T22:36:19.228Z,81.11
2019-03-22T22:38:48.037Z,81.13
2019-03-22T22:41:16.943Z,81.06
2019-03-22T22:43:45.516Z,80.97
2019-03-22T22:46:14.106Z,80.89
2019-03-22T22:48:42.421Z,80.91
2019-03-22T22:51:10.767Z,80.71
2019-03-22T22:53:39.334Z,80.71
2019-03-22T22:56:07.931Z,80.76
2019-03-22T22:58:36.256Z,81.12
2019-03-22T23:01:04.718Z,81.07
2019-03-22T23:03:33.022Z,81.13
2019-03-22T23:06:09.078Z,81.08
2019-03-22T23:08:31.385Z,81.12
2019-03-22T23:10:59.681Z,81.47
2019-03-22T23:13:28.326Z,81.39
2019-03-22T23:15:56.649Z,81.50
2019-03-22T23:18:24.984Z,81.58
2019-03-22T23:20:53.397Z,81.57
2019-03-22T23:23:21.724Z,81.63
2019-03-22T23:25:50.306Z,81.66
2019-03-22T23:28:18.624Z,81.70
2019-03-22T23:30:46.921Z,81.65
2019-03-22T23:33:15.665Z,81.62
2019-03-22T23:35:43.948Z,81.74
2019-03-22T23:38:12.258Z,81.79
2019-03-22T23:40:40.537Z,81.90
2019-03-22T23:43:09.086Z,81.73
2019-03-22T23:45:37.439Z,81.68
2019-03-22T23:48:06.024Z,81.92
2019-03-22T23:50:34.616Z,81.93
2019-03-22T23:53:02.907Z,82.00
2019-03-22T23:55:31.228Z,82.14
2019-03-22T23:57:59.551Z,82.10
